createdAt,value
2023-01-29T00:02:01.077Z,19.91
2023-01-29T00:05:25.555Z,20.27
2023-01-29T00:08:29.435Z,20.13
2023-01-29T00:11:33.390Z,19.92
2023-01-29T00:14:37.209Z,19.92
2023-01-29T00:17:41.294Z,20.01
2023-01-29T00:20:45.281Z,20.08
2023-01-29T00:23:49.363Z,20.67
2023-01-29T00:26:53.338Z,20.31
2023-01-29T00:29:57.420Z,20.88
2023-01-29T00:33:01.670Z,20.63
2023-01-29T00:36:05.628Z,20.35
2023-01-29T00:39:09.506Z,20.70
2023-01-29T00:42:13.953Z,20.23
2023-01-29T00:45:17.806Z,20.10
2023-01-29T00:48:21.804Z,20.54
2023-01-29T00:51:25.929Z,20.58
2023-01-29T00:54:31.409Z,20.67
2023-01-29T00:57:36.805Z,20.33
2023-01-29T01:00:40.890Z,19.66
2023-01-29T01:03:44.866Z,20.67
2023-01-29T01:06:48.874Z,19.85
2023-01-29T01:09:52.857Z,20.24
2023-01-29T01:12:56.610Z,20.29
2023-01-29T01:16:00.494Z,20.12
2023-01-29T01:19:04.369Z,20.28
2023-01-29T01:22:08.352Z,20.32
2023-01-29T01:25:12.270Z,20.01
2023-01-29T01:28:16.131Z,20.04
2023-01-29T01:31:20.160Z,19.89
2023-01-29T01:34:24.117Z,20.17
2023-01-29T01:37:28.236Z,20.34
2023-01-29T01:40:32.165Z,20.35
2023-01-29T01:43:36.273Z,21.09
2023-01-29T01:46:40.404Z,20.57
2023-01-29T01:49:44.287Z,21.03
2023-01-29T01:52:48.315Z,20.71
2023-01-29T01:55:52.260Z,20.98
2023-01-29T01:58:56.392Z,20.85
2023-01-29T02:02:00.523Z,21.00
2023-01-29T02:05:04.455Z,20.37
2023-01-29T02:08:08.450Z,21.11
2023-01-29T02:11:12.274Z,21.06
2023-01-29T02:14:16.335Z,21.49
2023-01-29T02:17:20.261Z,20.68
2023-01-29T02:20:24.048Z,21.53
2023-01-29T02:23:31.243Z,20.79
2023-01-29T02:26:35.172Z,21.03
2023-01-29T02:29:39.409Z,21.17
2023-01-29T02:32:43.562Z,20.50
2023-01-29T02:35:47.361Z,20.58
2023-01-29T02:38:51.183Z,20.55
2023-01-29T02:41:55.316Z,20.58
2023-01-29T02:44:59.542Z,21.42
2023-01-29T02:48:03.603Z,20.87
2023-01-29T02:51:07.473Z,20.49
2023-01-29T02:54:11.571Z,19.91
2023-01-29T02:57:15.698Z,20.54
2023-01-29T03:00:19.701Z,20.10
2023-01-29T03:03:23.561Z,20.31
2023-01-29T03:06:27.438Z,20.08
2023-01-29T03:09:31.349Z,20.10
2023-01-29T03:12:35.444Z,19.67
2023-01-29T03:15:39.200Z,19.98
2023-01-29T03:18:42.934Z,20.40
2023-01-29T03:21:46.772Z,19.94
2023-01-29T03:24:50.882Z,19.98
2023-01-29T03:27:55.033Z,19.71
2023-01-29T03:30:59.042Z,19.62
2023-01-29T03:34:02.932Z,20.10
2023-01-29T03:37:06.865Z,19.62
2023-01-29T03:40:11.060Z,19.50
2023-01-29T03:43:15.053Z,19.58
2023-01-29T03:46:19.036Z,19.70
2023-01-29T03:49:22.989Z,19.28
2023-01-29T03:52:26.983Z,19.04
2023-01-29T03:55:31.230Z,19.47
2023-01-29T03:58:35.265Z,19.49
2023-01-29T04:01:39.285Z,18.92
2023-01-29T04:04:42.924Z,19.29
2023-01-29T04:07:46.877Z,19.07
2023-01-29T04:10:50.878Z,18.67
2023-01-29T04:13:57.699Z,19.16
2023-01-29T04:17:01.714Z,18.17
2023-01-29T04:20:05.596Z,19.64
2023-01-29T04:23:09.577Z,19.37
2023-01-29T04:26:13.763Z,18.85
2023-01-29T04:29:17.676Z,19.34
2023-01-29T04:32:21.508Z,18.80
2023-01-29T04:35:25.440Z,18.88
2023-01-29T04:38:29.706Z,19.10
2023-01-29T04:41:33.555Z,19.03
2023-01-29T04:44:37.449Z,18.54
2023-01-29T04:47:41.575Z,18.73
2023-01-29T04:50:45.583Z,18.96
2023-01-29T04:53:49.449Z,18.98
2023-01-29T04:56:53.270Z,19.33
2023-01-29T04:59:57.231Z,18.76
2023-01-29T05:03:01.334Z,18.84
2023-01-29T05:06:05.386Z,18.67
2023-01-29T05:09:09.292Z,19.05
2023-01-29T05:12:13.155Z,18.29
2023-01-29T05:15:17.269Z,18.91
2023-01-29T05:18:21.529Z,18.93
2023-01-29T05:21:25.523Z,19.41
2023-01-29T05:24:29.510Z,18.57
2023-01-29T05:27:33.504Z,18.84
2023-01-29T05:30:37.588Z,19.16
2023-01-29T05:33:41.431Z,18.80
2023-01-29T05:36:45.430Z,18.49
2023-01-29T05:39:49.334Z,18.56
2023-01-29T05:42:53.333Z,18.72
2023-01-29T05:45:57.391Z,18.81
2023-01-29T05:49:01.290Z,18.98
2023-01-29T05:52:05.229Z,18.74
2023-01-29T05:55:09.361Z,18.62
2023-01-29T05:58:13.426Z,18.59
2023-01-29T06:01:17.576Z,19.47
2023-01-29T06:04:21.578Z,18.52
2023-01-29T06:07:25.455Z,18.72
2023-01-29T06:10:29.568Z,18.54
2023-01-29T06:13:33.672Z,19.12
2023-01-29T06:16:37.747Z,18.70
2023-01-29T06:19:41.656Z,18.80
2023-01-29T06:22:45.424Z,19.11
2023-01-29T06:25:49.408Z,18.57
2023-01-29T06:28:53.246Z,18.94
2023-01-29T06:31:57.034Z,19.27
2023-01-29T06:35:00.806Z,18.82
2023-01-29T06:38:04.797Z,18.92
2023-01-29T06:41:08.721Z,19.06
2023-01-29T06:44:12.673Z,19.17
2023-01-29T06:47:16.532Z,18.80
2023-01-29T06:50:20.716Z,18.84
2023-01-29T06:53:24.975Z,18.97
2023-01-29T06:56:29.216Z,18.71
2023-01-29T06:59:33.213Z,19.17
2023-01-29T07:02:37.073Z,18.54
2023-01-29T07:05:41.200Z,19.71
2023-01-29T07:08:45.230Z,19.15
2023-01-29T07:11:49.323Z,19.41
2023-01-29T07:14:53.124Z,19.55
2023-01-29T07:17:57.163Z,19.51
2023-01-29T07:21:04.167Z,19.49
2023-01-29T07:24:08.296Z,19.54
2023-01-29T07:27:12.269Z,19.48
2023-01-29T07:30:16.540Z,19.60
2023-01-29T07:33:20.757Z,19.40
2023-01-29T07:36:24.949Z,19.72
2023-01-29T07:39:29.223Z,19.74
2023-01-29T07:42:33.092Z,19.80
2023-01-29T07:45:37.053Z,19.58
2023-01-29T07:48:41.028Z,19.81
2023-01-29T07:51:45.262Z,20.36
2023-01-29T07:54:49.234Z,19.92
2023-01-29T07:57:53.163Z,19.90
2023-01-29T08:00:57.132Z,19.72
2023-01-29T08:04:01.173Z,19.93
2023-01-29T08:07:05.219Z,20.15
2023-01-29T08:10:09.383Z,19.53
2023-01-29T08:13:13.451Z,20.36
2023-01-29T08:16:19.371Z,19.84
2023-01-29T08:19:23.401Z,19.97
2023-01-29T08:22:27.475Z,19.51
2023-01-29T08:25:31.696Z,19.48
2023-01-29T08:28:35.607Z,19.39
2023-01-29T08:31:39.748Z,19.16
2023-01-29T08:34:43.719Z,18.89
2023-01-29T08:37:47.856Z,18.76
2023-01-29T08:40:51.700Z,17.72
2023-01-29T08:43:55.423Z,18.24
2023-01-29T08:46:59.575Z,17.97
2023-01-29T08:50:03.608Z,18.53
2023-01-29T08:53:07.629Z,18.59
2023-01-29T08:56:11.638Z,18.87
2023-01-29T08:59:15.610Z,18.78
2023-01-29T09:02:19.989Z,18.50
2023-01-29T09:05:24.025Z,18.04
2023-01-29T09:08:28.209Z,18.53
2023-01-29T09:11:32.047Z,18.19
2023-01-29T09:14:36.215Z,18.67
2023-01-29T09:17:40.613Z,18.32
2023-01-29T09:20:44.810Z,18.64
2023-01-29T09:23:48.575Z,18.71
2023-01-29T09:26:52.455Z,17.91
2023-01-29T09:29:56.410Z,18.40
2023-01-29T09:33:00.476Z,18.91
2023-01-29T09:36:04.430Z,18.46
2023-01-29T09:39:08.156Z,18.18
2023-01-29T09:42:12.201Z,18.10
2023-01-29T09:45:16.767Z,18.17
2023-01-29T09:48:21.070Z,18.56
2023-01-29T09:51:25.191Z,18.64
2023-01-29T09:54:29.234Z,18.67
2023-01-29T09:57:33.468Z,19.08
2023-01-29T10:00:37.462Z,18.93
2023-01-29T10:03:41.631Z,18.84
2023-01-29T10:06:45.639Z,19.00
2023-01-29T10:09:49.663Z,18.92
2023-01-29T10:12:53.964Z,18.72
2023-01-29T10:15:58.001Z,17.95
2023-01-29T10:19:01.994Z,18.86
2023-01-29T10:22:05.859Z,18.56
2023-01-29T10:25:09.963Z,18.81
2023-01-29T10:28:14.101Z,19.38
2023-01-29T10:31:18.252Z,18.87
2023-01-29T10:34:22.462Z,18.81
2023-01-29T10:37:26.427Z,18.86
2023-01-29T10:40:30.491Z,18.35
2023-01-29T10:43:34.717Z,19.26
2023-01-29T10:46:38.698Z,18.99
2023-01-29T10:49:42.454Z,18.87
2023-01-29T10:52:46.390Z,19.25
2023-01-29T10:55:50.727Z,19.46
2023-01-29T10:58:54.724Z,19.71
2023-01-29T11:01:59.106Z,18.60
2023-01-29T11:05:03.221Z,19.38
2023-01-29T11:08:07.145Z,19.09
2023-01-29T11:11:14.316Z,19.14
2023-01-29T11:14:18.054Z,19.28
2023-01-29T11:17:22.364Z,19.19
2023-01-29T11:20:26.664Z,19.19
2023-01-29T11:23:31.306Z,19.83
2023-01-29T11:26:35.331Z,19.05
2023-01-29T11:29:39.681Z,19.20
2023-01-29T11:32:44.064Z,20.22
2023-01-29T11:35:47.618Z,19.82
2023-01-29T11:38:51.710Z,20.67
2023-01-29T11:41:56.024Z,19.90
2023-01-29T11:45:00.279Z,19.21
2023-01-29T11:48:04.263Z,19.03
2023-01-29T11:51:08.061Z,19.08
2023-01-29T11:54:12.000Z,19.44
2023-01-29T11:57:16.536Z,19.12
2023-01-29T12:00:21.319Z,19.70
2023-01-29T12:03:25.282Z,18.45
2023-01-29T12:06:29.087Z,18.88
2023-01-29T12:09:33.203Z,18.90
2023-01-29T12:12:37.026Z,19.49
2023-01-29T12:15:41.141Z,19.45
2023-01-29T12:18:45.050Z,19.37
2023-01-29T12:21:48.967Z,19.80
2023-01-29T12:24:53.417Z,20.56
2023-01-29T12:27:57.433Z,20.44
2023-01-29T12:31:04.469Z,19.85
2023-01-29T12:34:09.350Z,18.87
2023-01-29T12:37:13.223Z,19.44
2023-01-29T12:40:17.683Z,20.25
2023-01-29T12:43:22.062Z,21.21
2023-01-29T12:46:26.377Z,22.81
2023-01-29T12:49:31.594Z,23.79
2023-01-29T12:52:35.559Z,20.05
2023-01-29T12:55:39.605Z,19.23
2023-01-29T12:58:43.609Z,19.83
2023-01-29T13:01:47.670Z,19.41
2023-01-29T13:04:51.588Z,19.56
2023-01-29T13:07:55.514Z,19.31
2023-01-29T13:10:59.765Z,19.40
2023-01-29T13:14:03.850Z,19.20
2023-01-29T13:17:07.772Z,29.61
2023-01-29T13:20:11.938Z,23.02
2023-01-29T13:23:15.882Z,20.69
2023-01-29T13:26:20.053Z,19.34
2023-01-29T13:29:24.184Z,30.37
2023-01-29T13:32:28.459Z,25.61
2023-01-29T13:35:33.414Z,19.66
2023-01-29T13:38:37.626Z,19.21
2023-01-29T13:41:41.886Z,19.01
2023-01-29T13:44:46.160Z,18.72
2023-01-29T13:47:50.051Z,18.58
2023-01-29T13:50:54.085Z,19.20
2023-01-29T13:53:58.372Z,19.03
2023-01-29T13:57:02.377Z,19.86
2023-01-29T14:00:06.591Z,19.26
2023-01-29T14:03:10.355Z,19.18
2023-01-29T14:06:14.467Z,19.72
2023-01-29T14:09:18.622Z,19.85
2023-01-29T14:12:24.508Z,19.83
2023-01-29T14:15:28.465Z,19.45
2023-01-29T14:18:32.559Z,19.56
2023-01-29T14:21:36.690Z,19.82
2023-01-29T14:24:40.664Z,19.77
2023-01-29T14:27:44.734Z,20.28
2023-01-29T14:30:48.971Z,21.28
2023-01-29T14:33:52.906Z,20.62
2023-01-29T14:36:57.071Z,23.06
2023-01-29T14:40:01.394Z,20.97
2023-01-29T14:43:05.709Z,20.77
2023-01-29T14:46:09.655Z,20.84
2023-01-29T14:49:13.755Z,20.11
2023-01-29T14:52:17.794Z,20.59
2023-01-29T14:55:21.998Z,20.79
2023-01-29T14:58:25.802Z,20.57
2023-01-29T15:01:30.013Z,23.72
2023-01-29T15:04:33.964Z,20.94
2023-01-29T15:07:38.276Z,20.73
2023-01-29T15:10:42.386Z,23.40
2023-01-29T15:13:46.179Z,21.17
2023-01-29T15:16:50.297Z,24.07
2023-01-29T15:19:54.023Z,31.11
2023-01-29T15:22:58.291Z,24.94
2023-01-29T15:26:02.134Z,24.45
2023-01-29T15:29:06.044Z,24.76
2023-01-29T15:32:09.752Z,24.40
2023-01-29T15:35:13.998Z,24.71
2023-01-29T15:38:17.661Z,27.99
2023-01-29T15:41:21.401Z,23.97
2023-01-29T15:44:25.153Z,24.45
2023-01-29T15:47:29.266Z,26.39
2023-01-29T15:50:33.481Z,29.71
2023-01-29T15:53:37.348Z,22.83
2023-01-29T15:56:41.197Z,25.21
2023-01-29T15:59:47.670Z,25.09
2023-01-29T16:02:51.582Z,24.70
2023-01-29T16:05:55.742Z,22.72
2023-01-29T16:08:59.812Z,22.19
2023-01-29T16:12:03.778Z,23.98
2023-01-29T16:18:29.978Z,25.71
2023-01-29T16:21:33.882Z,23.47
2023-01-29T16:24:37.938Z,23.60
2023-01-29T16:27:41.868Z,25.29
2023-01-29T16:30:45.695Z,23.95
2023-01-29T16:33:49.485Z,22.90
2023-01-29T16:36:54.401Z,21.98
2023-01-29T16:39:58.398Z,22.73
2023-01-29T16:43:02.384Z,21.85
2023-01-29T16:46:06.016Z,21.53
2023-01-29T16:49:10.317Z,20.94
2023-01-29T16:52:14.241Z,21.41
2023-01-29T16:55:18.728Z,21.90
2023-01-29T16:58:25.130Z,21.81
2023-01-29T17:01:29.917Z,21.03
2023-01-29T17:04:34.021Z,21.48
2023-01-29T17:07:38.110Z,22.06
2023-01-29T17:10:41.901Z,21.46
2023-01-29T17:13:45.576Z,21.71
2023-01-29T17:16:49.857Z,21.95
2023-01-29T17:19:54.054Z,21.77
2023-01-29T17:22:58.202Z,21.97
2023-01-29T17:26:02.313Z,21.83
2023-01-29T17:29:06.510Z,21.62
2023-01-29T17:32:10.820Z,22.32
2023-01-29T17:35:15.376Z,22.66
2023-01-29T17:38:26.495Z,22.77
2023-01-29T17:41:31.111Z,23.35
2023-01-29T17:44:35.466Z,22.23
2023-01-29T17:47:39.664Z,22.95
2023-01-29T17:50:43.582Z,22.16
2023-01-29T17:53:47.908Z,22.74
2023-01-29T17:56:51.890Z,25.32
2023-01-29T17:59:55.872Z,25.05
2023-01-29T18:03:00.025Z,24.85
2023-01-29T18:06:03.990Z,25.14
2023-01-29T18:09:08.249Z,24.04
2023-01-29T18:12:12.083Z,27.06
2023-01-29T18:15:16.378Z,25.73
2023-01-29T18:18:20.215Z,25.77
2023-01-29T18:21:24.253Z,24.49
2023-01-29T18:24:31.335Z,24.20
2023-01-29T18:27:35.433Z,24.78
2023-01-29T18:30:39.450Z,23.87
2023-01-29T18:33:43.483Z,23.97
2023-01-29T18:36:47.430Z,23.64
2023-01-29T18:39:51.552Z,25.13
2023-01-29T18:42:55.535Z,25.47
2023-01-29T18:45:59.487Z,25.84
2023-01-29T18:49:03.466Z,25.33
2023-01-29T18:52:07.551Z,25.84
2023-01-29T18:55:11.687Z,25.57
2023-01-29T18:58:26.870Z,26.25
2023-01-29T19:01:37.754Z,26.07
2023-01-29T19:04:41.551Z,26.06
2023-01-29T19:07:46.836Z,25.95
2023-01-29T19:10:50.961Z,24.79
2023-01-29T19:13:55.007Z,26.56
2023-01-29T19:16:58.956Z,26.42
2023-01-29T19:20:02.925Z,25.86
2023-01-29T19:23:06.701Z,26.06
2023-01-29T19:26:10.854Z,25.73
2023-01-29T19:29:16.564Z,26.25
2023-01-29T19:32:20.391Z,27.05
2023-01-29T19:35:24.344Z,27.30
2023-01-29T19:38:28.271Z,27.53
2023-01-29T19:41:32.470Z,28.03
2023-01-29T19:44:36.586Z,28.47
2023-01-29T19:47:40.506Z,28.49
2023-01-29T19:50:44.583Z,28.66
2023-01-29T19:53:48.751Z,29.70
2023-01-29T19:56:52.616Z,30.15
2023-01-29T19:59:56.355Z,30.69
2023-01-29T20:03:00.344Z,30.37
2023-01-29T20:06:04.557Z,31.65
2023-01-29T20:09:08.635Z,30.46
2023-01-29T20:12:12.804Z,30.25
2023-01-29T20:15:16.941Z,30.41
2023-01-29T20:18:20.933Z,30.85
2023-01-29T20:21:25.146Z,31.39
2023-01-29T20:24:29.163Z,30.52
2023-01-29T20:27:33.182Z,29.97
2023-01-29T20:30:37.155Z,30.55
2023-01-29T20:33:42.262Z,30.27
2023-01-29T20:36:45.986Z,30.67
2023-01-29T20:39:49.925Z,31.03
2023-01-29T20:42:53.839Z,30.02
2023-01-29T20:45:58.102Z,29.58
2023-01-29T20:49:02.179Z,29.51
2023-01-29T20:52:06.144Z,28.83
2023-01-29T20:55:10.101Z,29.69
2023-01-29T20:58:14.291Z,29.37
2023-01-29T21:01:18.522Z,28.85
2023-01-29T21:04:22.508Z,29.76
2023-01-29T21:07:26.466Z,32.48
2023-01-29T21:10:30.336Z,28.22
2023-01-29T21:13:34.422Z,29.99
2023-01-29T21:16:38.421Z,31.73
2023-01-29T21:19:42.390Z,31.40
2023-01-29T21:22:46.311Z,30.06
2023-01-29T21:25:50.206Z,28.82
2023-01-29T21:28:54.471Z,28.31
2023-01-29T21:31:58.481Z,28.17
2023-01-29T21:35:02.464Z,28.47
2023-01-29T21:38:06.387Z,29.13
2023-01-29T21:41:10.525Z,28.55
2023-01-29T21:44:14.559Z,29.14
2023-01-29T21:47:18.489Z,28.11
2023-01-29T21:50:22.588Z,28.42
2023-01-29T21:53:26.621Z,28.21
2023-01-29T21:56:30.719Z,28.32
2023-01-29T21:59:34.684Z,28.88
2023-01-29T22:02:38.797Z,28.26
2023-01-29T22:05:42.380Z,28.51
2023-01-29T22:08:46.424Z,29.16
2023-01-29T22:11:50.467Z,28.58
2023-01-29T22:14:54.495Z,28.65
2023-01-29T22:17:58.449Z,27.91
2023-01-29T22:21:02.609Z,28.47
2023-01-29T22:24:06.569Z,27.91
2023-01-29T22:27:10.673Z,27.75
2023-01-29T22:30:15.736Z,27.36
2023-01-29T22:33:19.516Z,27.12
2023-01-29T22:36:23.516Z,27.19
2023-01-29T22:39:27.739Z,26.69
2023-01-29T22:42:31.607Z,27.26
2023-01-29T22:45:35.332Z,25.78
2023-01-29T22:48:39.187Z,26.58
2023-01-29T22:51:43.234Z,27.23
2023-01-29T22:54:47.341Z,27.20
2023-01-29T22:57:51.159Z,27.45
2023-01-29T23:00:55.228Z,25.92
2023-01-29T23:03:59.305Z,25.55
2023-01-29T23:07:03.339Z,26.18
2023-01-29T23:10:07.408Z,26.47
2023-01-29T23:13:11.346Z,24.71
2023-01-29T23:16:15.252Z,26.12
2023-01-29T23:19:19.424Z,25.88
2023-01-29T23:22:23.469Z,26.45
2023-01-29T23:25:28.906Z,27.11
2023-01-29T23:28:33.089Z,26.43
2023-01-29T23:31:37.040Z,25.92
2023-01-29T23:34:43.229Z,25.96
2023-01-29T23:37:47.192Z,25.78
2023-01-29T23:40:51.234Z,25.85
2023-01-29T23:43:55.303Z,26.65
2023-01-29T23:46:59.406Z,26.31
2023-01-29T23:50:03.244Z,27.81
2023-01-29T23:53:07.429Z,26.88
2023-01-29T23:56:11.519Z,26.07
2023-01-29T23:59:15.678Z,25.54
